Flight Track Log - Related Links

Times and Time Zones

All times are in EDT time to prevent confusion due to time zone crossing. See the BJS542 flight status page for this flight to view local times or setup timezone preferences in your user account.

Time Position Orientation Groundspeed Altitude Reporting Facility
EDT Latitude Longitude Course Direction KTS MPH feet Rate Location/Type
Mon 01:36:51 PM 24.9631 -77.4481 264° West 215 247 6,000  Level Miami Center
Mon 01:37:51 PM 24.9775 -77.5167 283° West 134 154 8,900 3,300 Climbing Miami Center
Mon 01:38:51 PM 25.0125 -77.6064 293° West 202 232 12,600 3,650 Climbing Miami Center
Mon 01:39:51 PM 25.0119 -77.7164 270° West 312 359 16,200 3,300 Climbing Miami Center
Mon 01:40:51 PM 25.0069 -77.8333 267° West 344 396 19,200 1,900 Climbing Miami Center
Mon 01:41:00 PM 25.0008 -77.9081 264° West  Level FlightAware Approximate
Mon 01:41:51 PM 25.0019 -77.9550 267° West 383 441 20,000  Level Miami Center
Mon 01:42:00 PM 24.9925 -77.9996 264° West  Level FlightAware Approximate
Mon 01:42:51 PM 24.9947 -78.0786 266° West 404 465 20,000  Level Miami Center
Mon 01:43:51 PM 24.9917 -78.1956 268° West 398 458 20,000  Level Miami Center
Mon 01:44:51 PM 24.9822 -78.3147 265° West 398 458 20,000  Level Miami Center
Mon 01:45:51 PM 24.9539 -78.4311 255° West 398 458 20,000  Level Miami Center
Mon 01:46:51 PM 24.9400 -78.5433 262° West 391 450 20,000  Level Miami Center
Mon 01:47:51 PM 24.9283 -78.6464 263° West 366 421 20,000  Level Miami Center
Mon 01:48:51 PM 24.9253 -78.7447 268° West 340 391 20,000  Level Miami Center
Mon 01:49:51 PM 24.9594 -78.8347 293° West 325 374 20,000  Level Miami Center
Mon 01:50:51 PM 25.0064 -78.9272 299° West 325 374 20,000  Level Miami Center
Mon 01:51:51 PM 25.0569 -79.0289 299° West 331 381 20,000  Level Miami Center
Mon 01:52:51 PM 25.1017 -79.1192 299° West 342 394 20,000  Level Miami Center
Mon 01:53:51 PM 25.1483 -79.2119 299° West 342 394 20,000 -250 Level Miami Center
Mon 01:54:51 PM 25.1906 -79.3069 296° West 347 399 19,500 -1,100 Descending Miami Center
Mon 01:55:51 PM 25.2350 -79.3972 299° West 341 392 17,800 -1,579 Descending Miami Center
Mon 01:56:07 PM 25.2411 -79.4181 288° West 330 380 17,500 -1,424 Descending Miami Center
Mon 01:56:50 PM 25.2711 -79.4853 296° West 322 371 16,400 -1,558 Descending Miami Center
Mon 01:57:51 PM 25.3156 -79.5736 299° West 322 371 14,800 -1,552 Descending Miami Center
Mon 01:58:46 PM 25.3517 -79.6528 297° West 316 364 13,400 -1,500 Descending Miami Center
Mon 01:59:51 PM 25.4000 -79.7411 301° West 321 369 11,800 -1,440 Descending Miami Center
Mon 02:00:51 PM 25.4508 -79.8206 305° West 316 364 10,400 -900 Descending Miami Center
Mon 02:01:51 PM 25.4994 -79.8908 307° West 310 357 10,000 -200 Descending Miami Center
Mon 02:02:51 PM 25.5481 -79.9658 306° West 305 351 10,000 -100 Level Miami Center
Mon 02:03:51 PM 25.5967 -80.0361 307° West 299 344 9,800 -650 Descending Miami Center
Mon 02:04:51 PM 25.6411 -80.1042 306° West 282 325 8,700 -900 Descending Miami Center
Mon 02:05:51 PM 25.6967 -80.1469 325° Northwest 258 297 8,000 -560 Descending Miami Center
Mon 02:06:06 PM 25.7089 -80.1589 319° Northwest 248 285 8,000  Level Miami Center
Mon 02:07:13 PM 25.7747 -80.2092 325° Northwest 253 291 8,000 -141 Level Miami Center
Mon 02:08:14 PM 25.8322 -80.2525 326° Northwest 252 290 7,700 -828 Descending Miami Center
Mon 02:09:09 PM 25.8747 -80.2997 315° West 232 267 6,400 -1,655 Descending Miami Center
Mon 02:10:10 PM 25.9006 -80.3653 294° West 242 278 4,500 -1,426 Descending Miami Center
Mon 02:11:11 PM 25.8925 -80.4364 263° West 220 253 3,500 -1,024 Descending Miami Center
Mon 02:12:13 PM 25.8422 -80.4442 188° South 188 216 2,400 -732 Descending Miami Center
Mon 02:13:14 PM 25.8181 -80.4019 122° Southeast 151 174 2,000 -563 Descending Miami Center
Mon 02:14:21 PM 25.8025 -80.3531 109° East 139 160 1,200 -787 Descending Miami Center
Mon 02:15:16 PM 25.8014 -80.3183 92° East 118 136 400 -873 Descending Miami Center
Mon 02:17:00 PM 25.7954 -80.2901 77° East  Level Estimated

Login

Don't have an account? Register now (free) for customized features, flight alerts, and more!